Time;durP1;ratioP1;P1;durP2;ratioP2;P2;SDS_P1;SDS_P2;PMS_P1;PMS_P2;Temp;Humidity;BMP_temperature;BMP_pressure;BME280_temperature;BME280_humidity;BME280_pressure;Samples;Min_cycle;Max_cycle;Signal;HPM_P1;HPM_P2
2021/09/13 00:01:03;;;;;;;22.05;19.17;;;;;;;20.56;71.22;98894.67;2269866;77;20983;-79
2021/09/13 00:04:04;;;;;;;18.57;15.68;;;;;;;20.51;71.22;98892.61;2271911;78;20944;-80
2021/09/13 00:07:04;;;;;;;16.70;15.15;;;;;;;20.50;71.39;98887.76;2260032;77;21010;-80
2021/09/13 00:10:05;;;;;;;17.90;15.00;;;;;;;20.50;71.39;98886.44;2274813;77;20987;-80
2021/09/13 00:13:05;;;;;;;18.52;16.73;;;;;;;20.51;71.39;98889.50;2261534;77;20991;-81
2021/09/13 00:16:06;;;;;;;20.08;17.95;;;;;;;20.53;71.39;98889.00;2269432;77;20975;-81
2021/09/13 00:19:06;;;;;;;19.85;18.07;;;;;;;20.55;71.25;98886.30;2292993;78;20943;-81
2021/09/13 00:22:07;;;;;;;19.23;17.42;;;;;;;20.54;71.29;98890.74;2264403;78;21032;-81
2021/09/13 00:25:08;;;;;;;18.90;17.02;;;;;;;20.53;71.29;98889.45;2296663;78;20972;-80
2021/09/13 00:28:08;;;;;;;18.52;16.73;;;;;;;20.54;71.44;98882.78;2268424;78;20943;-80
2021/09/13 00:31:09;;;;;;;19.45;17.20;;;;;;;20.55;71.44;98885.85;2265949;78;21015;-81
2021/09/13 00:34:09;;;;;;;18.67;16.90;;;;;;;20.54;71.39;98876.16;2288524;77;21039;-80
2021/09/13 00:37:10;;;;;;;19.30;17.48;;;;;;;20.54;71.36;98879.27;2258078;78;20959;-80
2021/09/13 00:40:10;;;;;;;17.17;15.48;;;;;;;20.52;71.43;98878.44;2294942;77;20953;-81
2021/09/13 00:43:11;;;;;;;19.07;16.97;;;;;;;20.51;71.44;98878.02;2266570;77;20967;-80
2021/09/13 00:46:12;;;;;;;18.23;16.50;;;;;;;20.49;71.47;98874.55;2288707;78;20955;-80
2021/09/13 00:49:12;;;;;;;18.05;16.20;;;;;;;20.49;71.40;98880.72;2277478;77;20959;-81
2021/09/13 00:52:14;;;;;;;17.95;16.25;;;;;;;20.46;71.39;98869.33;2296265;77;21371;-80
2021/09/13 00:55:14;;;;;;;16.32;14.70;;;;;;;20.45;71.44;98871.56;2280456;77;21008;-81
2021/09/13 00:58:15;;;;;;;19.87;16.00;;;;;;;20.46;71.56;98874.63;2289552;77;21348;-81
2021/09/13 01:01:15;;;;;;;16.73;15.05;;;;;;;20.44;71.55;98878.64;2279681;78;20983;-80
2021/09/13 01:04:16;;;;;;;16.07;14.38;;;;;;;20.39;71.57;98874.34;2294696;77;20964;-82
2021/09/13 01:07:16;;;;;;;18.48;14.23;;;;;;;20.40;71.77;98874.34;2280884;78;20986;-81
2021/09/13 01:10:17;;;;;;;16.80;15.30;;;;;;;20.43;71.71;98876.91;2254927;77;20983;-80
2021/09/13 01:13:17;;;;;;;17.35;15.65;;;;;;;20.43;71.72;98872.06;2280848;78;20967;-81
2021/09/13 01:16:18;;;;;;;16.30;14.60;;;;;;;20.43;71.70;98877.36;2268207;78;21015;-81
2021/09/13 01:19:18;;;;;;;17.27;15.60;;;;;;;20.44;71.59;98879.10;2250434;78;20991;-81
2021/09/13 01:22:19;;;;;;;15.90;14.40;;;;;;;20.42;71.72;98880.92;2286571;77;20952;-81
2021/09/13 01:25:19;;;;;;;17.32;13.98;;;;;;;20.34;71.71;98880.64;2273569;77;20924;-81
2021/09/13 01:28:20;;;;;;;15.05;13.65;;;;;;;20.35;71.79;98886.36;2248696;78;20951;-80
2021/09/13 01:31:20;;;;;;;20.40;14.25;;;;;;;20.37;71.84;98886.32;2287193;77;21303;-81
2021/09/13 01:34:21;;;;;;;21.90;15.08;;;;;;;20.37;71.64;98890.30;2259195;77;20924;-80
2021/09/13 01:37:21;;;;;;;19.00;14.93;;;;;;;20.28;71.53;98895.84;2291654;77;20936;-82
2021/09/13 01:40:22;;;;;;;16.40;14.80;;;;;;;20.16;71.83;98889.08;2272257;78;20928;-81
2021/09/13 01:43:22;;;;;;;16.97;13.95;;;;;;;19.87;72.20;98887.14;2266971;78;20928;-80
2021/09/13 01:46:23;;;;;;;16.82;14.53;;;;;;;19.83;72.70;98884.61;2283615;77;20951;-81
2021/09/13 01:49:23;;;;;;;15.70;14.13;;;;;;;19.92;73.10;98881.73;2277075;77;20952;-80
2021/09/13 01:52:24;;;;;;;18.20;14.83;;;;;;;20.01;73.29;98876.23;2287018;77;20983;-81
2021/09/13 01:55:24;;;;;;;16.25;14.55;;;;;;;20.10;73.09;98875.13;2252087;78;20970;-81
2021/09/13 01:58:25;;;;;;;14.80;13.40;;;;;;;20.17;73.01;98868.30;2261674;77;20947;-80
2021/09/13 02:01:25;;;;;;;20.60;15.13;;;;;;;20.21;72.95;98880.56;2289937;78;21363;-81
2021/09/13 02:04:26;;;;;;;17.20;15.48;;;;;;;20.27;72.88;98881.72;2278391;77;20951;-81
2021/09/13 02:07:26;;;;;;;20.02;16.15;;;;;;;20.24;72.62;98879.16;2248790;78;20951;-79
2021/09/13 02:10:27;;;;;;;20.08;16.07;;;;;;;20.09;72.53;98873.38;2284529;77;20995;-80
2021/09/13 02:13:27;;;;;;;17.95;15.80;;;;;;;19.95;72.71;98883.02;2261822;77;20956;-81
2021/09/13 02:16:28;;;;;;;17.60;15.65;;;;;;;19.84;72.84;98881.05;2280273;77;20978;-80
2021/09/13 02:19:28;;;;;;;19.30;17.20;;;;;;;19.77;73.43;98880.34;2268362;77;20960;-80
2021/09/13 02:22:29;;;;;;;19.87;15.65;;;;;;;19.59;73.82;98885.63;2292105;77;20967;-81
2021/09/13 02:25:29;;;;;;;19.10;14.65;;;;;;;19.72;74.45;98881.77;2263720;78;20932;-80
2021/09/13 02:28:30;;;;;;;17.40;14.80;;;;;;;19.87;74.10;98883.63;2269199;77;20943;-80
2021/09/13 02:31:30;;;;;;;17.37;14.65;;;;;;;19.89;74.12;98879.16;2264029;77;20955;-80
2021/09/13 02:34:30;;;;;;;18.00;16.17;;;;;;;19.99;74.10;98879.38;2257417;77;21350;-80
2021/09/13 02:37:31;;;;;;;19.07;16.73;;;;;;;19.94;73.68;98880.82;2275584;77;21059;-80
2021/09/13 02:40:31;;;;;;;17.73;15.35;;;;;;;19.84;73.29;98889.00;2266816;78;21003;-80
2021/09/13 02:43:32;;;;;;;17.90;16.07;;;;;;;19.85;74.33;98889.42;2284850;78;21050;-81
2021/09/13 02:46:32;;;;;;;20.43;18.35;;;;;;;19.98;74.34;98885.59;2275588;77;20951;-80
2021/09/13 02:49:33;;;;;;;18.23;16.20;;;;;;;20.09;74.16;98879.55;2269665;77;20997;-81
2021/09/13 02:52:33;;;;;;;21.52;17.57;;;;;;;20.13;73.81;98876.38;2291207;78;20983;-80
2021/09/13 02:55:34;;;;;;;17.40;15.68;;;;;;;20.15;73.80;98883.83;2289230;77;20989;-81
2021/09/13 02:58:35;;;;;;;21.37;19.27;;;;;;;20.14;73.84;98885.61;2282734;78;20920;-80
2021/09/13 03:01:35;;;;;;;17.52;14.73;;;;;;;20.13;73.36;98887.84;2280416;77;20999;-78
2021/09/13 03:04:36;;;;;;;18.02;14.78;;;;;;;20.10;73.75;98890.57;2282351;77;20991;-81
2021/09/13 03:07:36;;;;;;;17.52;15.75;;;;;;;20.11;73.84;98888.79;2275616;78;20994;-81
2021/09/13 03:10:37;;;;;;;19.12;16.62;;;;;;;20.15;73.85;98888.67;2256742;78;20979;-80
2021/09/13 03:13:37;;;;;;;18.85;17.00;;;;;;;20.20;73.78;98882.80;2260097;78;20991;-81
2021/09/13 03:16:38;;;;;;;19.12;17.10;;;;;;;20.21;73.79;98881.88;2255873;78;20999;-80
2021/09/13 03:19:38;;;;;;;18.70;16.80;;;;;;;20.24;73.73;98880.48;2275269;78;21017;-81
2021/09/13 03:22:39;;;;;;;20.15;18.07;;;;;;;20.24;73.56;98879.61;2279295;78;20981;-81
2021/09/13 03:25:40;;;;;;;19.95;17.98;;;;;;;20.22;73.33;98880.97;2288456;78;20971;-81
2021/09/13 03:28:40;;;;;;;19.82;17.92;;;;;;;20.13;73.34;98880.34;2263895;78;20986;-81
2021/09/13 03:31:41;;;;;;;22.85;16.87;;;;;;;20.05;73.40;98876.57;2274934;77;20964;-81
2021/09/13 03:34:42;;;;;;;16.57;14.98;;;;;;;20.06;73.75;98881.41;2274569;78;20927;-80
2021/09/13 03:37:42;;;;;;;18.45;16.57;;;;;;;20.11;73.60;98878.19;2286512;77;21026;-80
2021/09/13 03:40:42;;;;;;;17.15;15.35;;;;;;;20.12;73.34;98879.48;2270024;77;20920;-80
2021/09/13 03:43:43;;;;;;;16.93;15.32;;;;;;;20.14;72.88;98880.30;2275022;78;20958;-80
2021/09/13 03:46:44;;;;;;;16.17;14.15;;;;;;;20.08;73.00;98880.47;2286916;78;20959;-80
2021/09/13 03:49:44;;;;;;;16.25;14.70;;;;;;;20.09;72.49;98876.91;2291530;78;21313;-80
2021/09/13 03:52:45;;;;;;;17.10;15.30;;;;;;;20.00;72.55;98884.64;2280388;78;21446;-81
2021/09/13 03:55:45;;;;;;;17.30;14.93;;;;;;;20.03;72.77;98882.36;2285246;78;21007;-80
2021/09/13 03:58:46;;;;;;;15.40;13.80;;;;;;;20.06;72.55;98886.72;2291433;77;20924;-80
2021/09/13 04:01:46;;;;;;;15.43;14.00;;;;;;;20.00;72.91;98886.41;2290065;77;20959;-81
2021/09/13 04:04:49;;;;;;;16.32;14.43;;;;;;;20.07;72.96;98891.97;2278408;78;20987;-81
2021/09/13 04:14:00;;;;;;;14.68;13.30;;;;;;;20.17;72.60;98889.95;2252031;77;20960;-81
2021/09/13 04:17:00;;;;;;;15.05;13.75;;;;;;;20.20;72.64;98885.90;2277996;77;20963;-81
2021/09/13 04:20:01;;;;;;;16.87;14.65;;;;;;;20.19;72.46;98889.00;2265083;77;20991;-80
2021/09/13 04:23:01;;;;;;;15.80;13.95;;;;;;;20.22;72.31;98892.90;2291474;77;20980;-81
2021/09/13 04:26:02;;;;;;;18.48;15.50;;;;;;;20.21;72.30;98889.83;2270952;77;20964;-79
2021/09/13 04:29:02;;;;;;;18.40;15.15;;;;;;;20.16;72.17;98898.81;2287893;78;20994;-80
2021/09/13 04:32:03;;;;;;;16.85;15.15;;;;;;;20.08;72.42;98904.31;2286089;77;20965;-81
2021/09/13 04:35:03;;;;;;;20.12;16.17;;;;;;;20.03;72.30;98904.88;2294209;77;21387;-82
2021/09/13 04:38:04;;;;;;;17.30;15.45;;;;;;;20.03;72.79;98908.41;2281207;77;21614;-80
2021/09/13 04:41:04;;;;;;;67.67;20.60;;;;;;;19.97;72.68;98907.69;2275389;78;20952;-82
2021/09/13 04:44:05;;;;;;;52.78;19.55;;;;;;;20.04;72.86;98910.14;2278154;78;20963;-83
2021/09/13 04:47:05;;;;;;;338.40;41.20;;;;;;;19.97;72.48;98902.39;2282529;78;20931;-82
2021/09/13 04:50:06;;;;;;;165.15;27.20;;;;;;;19.96;72.77;98901.52;2258224;78;20940;-81
2021/09/13 04:53:06;;;;;;;41.80;19.62;;;;;;;19.92;72.91;98905.58;2278679;78;21035;-82
2021/09/13 04:56:07;;;;;;;31.60;17.90;;;;;;;20.01;73.32;98906.70;2274523;78;20949;-80
2021/09/13 04:59:10;;;;;;;28.35;16.65;;;;;;;20.12;73.22;98909.08;2265405;78;21309;-81
2021/09/13 05:02:11;;;;;;;77.35;21.70;;;;;;;20.22;72.93;98914.11;2270300;78;20932;-84
2021/09/13 05:05:11;;;;;;;27.75;20.60;;;;;;;20.27;72.81;98908.68;2255339;77;20994;-82
2021/09/13 05:08:12;;;;;;;26.23;23.65;;;;;;;20.22;71.84;98911.91;2263212;77;20976;-82
2021/09/13 05:11:13;;;;;;;27.65;24.80;;;;;;;19.97;71.55;98916.51;2284326;77;20959;-81
2021/09/13 05:14:13;;;;;;;22.50;20.17;;;;;;;19.91;73.21;98924.58;2273918;78;20935;-79
2021/09/13 05:17:14;;;;;;;25.12;19.32;;;;;;;20.07;72.86;98920.25;2257766;78;20994;-82
2021/09/13 05:20:16;;;;;;;23.77;19.10;;;;;;;19.86;72.68;98915.00;2238257;78;20947;-81
2021/09/13 05:23:17;;;;;;;21.75;17.65;;;;;;;19.80;72.70;98927.06;2250406;77;21034;-79
2021/09/13 05:26:17;;;;;;;21.15;18.77;;;;;;;19.70;72.18;98925.09;2276553;77;20967;-79
2021/09/13 05:29:18;;;;;;;20.72;17.90;;;;;;;19.28;72.44;98930.88;2291221;77;20924;-79
2021/09/13 05:32:18;;;;;;;19.73;17.83;;;;;;;19.07;73.11;98930.85;2273770;78;20956;-79
2021/09/13 05:35:19;;;;;;;20.40;18.12;;;;;;;18.66;73.64;98929.91;2266776;78;21674;-79
2021/09/13 05:38:19;;;;;;;20.95;18.75;;;;;;;18.34;74.89;98942.37;2284923;77;20967;-80
2021/09/13 05:41:20;;;;;;;19.92;17.67;;;;;;;18.33;76.61;98943.27;2288963;78;20956;-81
2021/09/13 05:44:23;;;;;;;20.53;18.47;;;;;;;18.83;77.93;98938.83;2274732;77;20962;-81
2021/09/13 05:47:24;;;;;;;22.45;20.10;;;;;;;19.21;76.18;98937.20;2260551;77;20942;-81
2021/09/13 05:50:24;;;;;;;20.37;18.42;;;;;;;19.35;76.19;98937.77;2270565;78;20967;-82
2021/09/13 05:53:25;;;;;;;21.17;19.07;;;;;;;19.35;74.06;98943.07;2254153;77;21002;-80
2021/09/13 05:56:25;;;;;;;21.95;19.80;;;;;;;19.12;75.27;98945.34;2268771;78;20964;-80
2021/09/13 05:59:27;;;;;;;24.37;20.88;;;;;;;19.17;75.62;98936.40;2271249;77;21399;-82
2021/09/13 06:02:27;;;;;;;24.15;19.55;;;;;;;19.32;75.40;98939.16;2268969;77;20959;-79
2021/09/13 06:05:28;;;;;;;23.45;18.70;;;;;;;19.77;76.50;98939.05;2272361;78;20952;-81
2021/09/13 06:08:28;;;;;;;19.62;17.70;;;;;;;20.33;75.19;98931.05;2275724;78;20952;-79
2021/09/13 06:11:29;;;;;;;18.50;16.73;;;;;;;20.75;73.68;98934.81;2271703;78;20967;-81
2021/09/13 06:14:30;;;;;;;21.35;19.12;;;;;;;20.77;72.83;98936.52;2283911;78;20968;-81
2021/09/13 06:17:30;;;;;;;23.27;20.25;;;;;;;20.47;70.83;98946.63;2258459;77;21025;-80
2021/09/13 06:20:30;;;;;;;23.60;20.77;;;;;;;19.60;71.81;98942.97;2276024;78;20968;-80
2021/09/13 06:23:34;;;;;;;23.25;20.95;;;;;;;19.27;73.20;98948.98;2266783;77;20984;-80
2021/09/13 06:26:34;;;;;;;24.98;22.02;;;;;;;19.03;73.82;98942.40;2267557;78;21000;-82
2021/09/13 06:29:35;;;;;;;23.18;20.85;;;;;;;19.00;75.07;98943.33;2263465;78;20959;-82
2021/09/13 06:32:35;;;;;;;24.45;21.95;;;;;;;18.83;74.99;98948.55;2246470;78;20991;-81
2021/09/13 06:35:36;;;;;;;22.45;20.05;;;;;;;18.66;75.87;98951.52;2281985;78;20959;-82
2021/09/13 06:38:36;;;;;;;23.22;20.82;;;;;;;18.83;76.38;98952.51;2293793;77;21007;-80
2021/09/13 06:41:37;;;;;;;24.87;22.10;;;;;;;18.99;76.22;98950.84;2288657;77;20969;-81
2021/09/13 06:44:38;;;;;;;27.07;22.07;;;;;;;19.20;76.12;98951.34;2283027;78;20982;-79
2021/09/13 06:47:47;;;;;;;22.95;20.70;;;;;;;19.21;75.39;98951.31;2282379;78;20966;-80
2021/09/13 06:50:48;;;;;;;26.82;20.60;;;;;;;19.21;75.41;98960.56;2285496;77;21023;-80
2021/09/13 06:53:48;;;;;;;23.73;20.88;;;;;;;19.13;75.24;98949.27;2290563;78;21003;-80
2021/09/13 06:56:49;;;;;;;23.85;20.82;;;;;;;19.30;75.27;98948.91;2286424;77;20968;-80
2021/09/13 06:59:49;;;;;;;22.50;20.12;;;;;;;19.54;75.62;98949.73;2284421;77;20952;-80
2021/09/13 07:02:50;;;;;;;22.15;18.62;;;;;;;19.83;74.97;98950.83;2265410;78;20937;-80
2021/09/13 07:05:51;;;;;;;22.10;19.85;;;;;;;20.13;74.96;98949.24;2288628;77;20999;-79
2021/09/13 07:08:51;;;;;;;21.45;19.27;;;;;;;20.09;73.05;98948.45;2293072;77;20967;-79
2021/09/13 07:11:52;;;;;;;21.57;19.32;;;;;;;19.98;73.64;98950.05;2293995;77;20930;-80
2021/09/13 07:14:52;;;;;;;19.57;17.67;;;;;;;20.53;73.22;98958.40;2276711;78;20970;-80
2021/09/13 07:17:53;;;;;;;19.30;17.48;;;;;;;20.69;73.05;98953.09;2282930;78;20947;-80
2021/09/13 07:20:53;;;;;;;20.27;18.23;;;;;;;20.62;71.45;98956.83;2282594;77;20967;-81
2021/09/13 07:23:54;;;;;;;18.15;16.12;;;;;;;20.43;71.48;98961.75;2296180;77;21026;-80
2021/09/13 07:26:54;;;;;;;18.52;15.53;;;;;;;20.53;72.10;98959.73;2287739;78;21400;-82
2021/09/13 07:29:59;;;;;;;19.55;17.52;;;;;;;20.68;71.51;98964.63;2288156;77;20972;-80
2021/09/13 07:32:57;;;;;;;28.35;18.55;;;;;;;20.52;70.04;98964.16;2261089;77;21082;-81
2021/09/13 07:35:58;;;;;;;21.87;16.73;;;;;;;20.50;70.85;98963.78;2283352;77;20947;-82
2021/09/13 07:38:58;;;;;;;17.07;15.48;;;;;;;21.19;70.64;98963.64;2276887;77;21003;-81
2021/09/13 07:41:59;;;;;;;35.38;30.55;;;;;;;21.29;68.29;98970.91;2291181;78;20979;-81
2021/09/13 07:45:01;;;;;;;21.07;16.45;;;;;;;21.49;68.95;98975.17;2269526;77;20941;-81
2021/09/13 07:48:02;;;;;;;15.03;13.58;;;;;;;21.55;68.08;98979.43;2278139;77;21378;-83
2021/09/13 07:51:02;;;;;;;16.05;13.32;;;;;;;21.58;67.11;98973.56;2278034;77;21054;-82
2021/09/13 07:54:03;;;;;;;14.98;11.35;;;;;;;21.80;67.08;98973.80;2269379;78;21003;-82
2021/09/13 07:57:04;;;;;;;15.30;12.28;;;;;;;21.76;64.06;98980.59;2290275;77;20972;-81
2021/09/13 08:00:04;;;;;;;13.50;12.10;;;;;;;21.38;65.83;98978.61;2274312;77;20955;-80
2021/09/13 08:03:05;;;;;;;13.13;11.53;;;;;;;21.37;65.86;98979.52;2255798;77;20931;-83
2021/09/13 08:06:06;;;;;;;9.25;8.45;;;;;;;22.02;66.72;98981.96;2271480;78;21047;-81
2021/09/13 08:09:07;;;;;;;10.18;9.18;;;;;;;22.42;63.80;98976.69;2277946;77;21066;-78
2021/09/13 08:12:08;;;;;;;10.68;9.35;;;;;;;22.28;62.51;98974.95;2293568;78;20940;-81
2021/09/13 08:15:08;;;;;;;9.75;8.95;;;;;;;22.06;61.62;98982.77;2203302;80;20975;-81
2021/09/13 08:18:09;;;;;;;9.33;8.45;;;;;;;22.12;61.50;98974.13;2192074;80;21000;-80
2021/09/13 08:21:10;;;;;;;34.55;10.98;;;;;;;22.12;60.48;98975.46;2204002;80;21436;-81
2021/09/13 08:24:11;;;;;;;9.78;8.98;;;;;;;22.39;62.13;98981.65;2237777;79;21240;-81
2021/09/13 08:27:11;;;;;;;9.35;8.50;;;;;;;22.58;60.45;98983.72;2274633;77;20940;-82
2021/09/13 08:30:12;;;;;;;9.65;8.80;;;;;;;22.66;60.93;98982.52;2190106;81;20979;-80
2021/09/13 08:33:13;;;;;;;20.45;9.90;;;;;;;22.67;60.23;98982.93;2183414;80;21665;-83
2021/09/13 08:36:13;;;;;;;9.85;8.85;;;;;;;22.73;58.66;98984.52;2205573;80;21028;-80
2021/09/13 08:39:15;;;;;;;8.63;7.90;;;;;;;22.75;58.95;98991.98;2205582;80;20982;-79
2021/09/13 08:42:16;;;;;;;9.38;8.40;;;;;;;22.55;57.48;98996.20;2247663;79;21003;-81
2021/09/13 08:45:21;;;;;;;9.00;8.20;;;;;;;22.39;59.14;98992.75;2236467;79;21339;-82
2021/09/13 08:51:31;;;;;;;8.90;8.00;;;;;;;22.81;58.26;98987.34;2198806;79;21034;-81
2021/09/13 08:54:33;;;;;;;9.20;8.48;;;;;;;23.13;58.36;98990.64;2223361;79;21055;-83
2021/09/13 08:57:37;;;;;;;9.70;8.23;;;;;;;23.78;58.04;98983.33;2275934;77;21046;-81
2021/09/13 09:00:36;;;;;;;8.18;7.37;;;;;;;24.49;55.72;98984.91;2271637;78;21308;-81
2021/09/13 09:03:36;;;;;;;8.25;7.65;;;;;;;24.55;56.40;98983.31;2286398;77;20979;-80
2021/09/13 09:06:37;;;;;;;9.23;7.65;;;;;;;24.85;55.25;98981.59;2291278;77;20964;-82
2021/09/13 09:09:37;;;;;;;9.28;7.08;;;;;;;25.03;54.75;98978.14;2259734;78;20936;-80
2021/09/13 09:12:38;;;;;;;9.53;7.33;;;;;;;25.52;55.48;98975.45;2204090;81;21639;-81
2021/09/13 09:15:38;;;;;;;11.63;7.10;;;;;;;25.83;52.85;98977.58;2183488;80;21054;-82
2021/09/13 09:18:40;;;;;;;7.70;7.10;;;;;;;25.33;51.72;98978.11;2180054;80;20948;-81
2021/09/13 09:21:43;;;;;;;9.05;7.20;;;;;;;25.09;51.60;98977.86;2181889;80;21023;-81
2021/09/13 09:24:43;;;;;;;9.23;7.63;;;;;;;25.35;54.33;98974.91;2251725;79;21000;-79
2021/09/13 09:27:43;;;;;;;9.50;7.15;;;;;;;25.48;52.46;98973.00;2245660;79;20972;-79
2021/09/13 09:30:44;;;;;;;7.85;7.15;;;;;;;25.03;50.71;98974.13;2244867;79;20937;-79
2021/09/13 09:33:47;;;;;;;10.30;7.60;;;;;;;24.45;50.91;98981.97;2296624;78;21020;-79
2021/09/13 09:36:47;;;;;;;10.53;8.00;;;;;;;23.91;51.92;98985.91;2267310;77;20995;-82
2021/09/13 09:39:53;;;;;;;7.87;6.90;;;;;;;23.28;54.01;98985.20;2288396;77;21015;-80
2021/09/13 09:42:54;;;;;;;8.68;7.80;;;;;;;22.77;55.65;98988.80;2207865;80;21024;-82
2021/09/13 09:45:55;;;;;;;8.70;7.90;;;;;;;22.39;57.31;98991.42;2181355;80;21391;-80
2021/09/13 09:48:55;;;;;;;8.85;7.97;;;;;;;22.14;58.16;98990.90;2184624;80;21000;-79
2021/09/13 09:51:56;;;;;;;8.15;7.35;;;;;;;21.90;59.21;98996.51;2196033;80;20975;-80
2021/09/13 09:54:56;;;;;;;26.48;9.93;;;;;;;21.77;59.60;98994.28;2200149;80;21009;-80
2021/09/13 09:57:57;;;;;;;8.63;7.92;;;;;;;21.84;60.39;98987.86;2185157;80;20978;-80
2021/09/13 10:00:57;;;;;;;9.53;8.53;;;;;;;22.16;59.51;98983.74;2201624;80;20969;-79
2021/09/13 10:03:58;;;;;;;7.65;7.05;;;;;;;22.48;58.79;98979.14;2205560;80;21016;-80
2021/09/13 10:06:59;;;;;;;7.50;6.80;;;;;;;22.52;58.34;98975.45;2174143;80;21020;-81
2021/09/13 10:09:59;;;;;;;7.95;7.25;;;;;;;22.81;57.98;98970.05;2165542;80;20961;-80
2021/09/13 10:13:01;;;;;;;7.65;7.05;;;;;;;23.06;55.93;98977.14;2172781;80;21256;-80
2021/09/13 10:16:01;;;;;;;7.20;6.47;;;;;;;22.93;56.09;98975.39;2192117;80;20946;-79
2021/09/13 10:19:02;;;;;;;7.22;6.62;;;;;;;23.30;54.63;98979.36;2185174;80;20963;-78
2021/09/13 10:22:02;;;;;;;10.03;6.03;;;;;;;23.69;54.56;98971.70;2208994;80;20983;-80
2021/09/13 10:25:03;;;;;;;7.10;6.50;;;;;;;24.02;52.60;98971.69;2250020;79;21008;-80
2021/09/13 10:28:04;;;;;;;7.65;6.55;;;;;;;24.24;51.84;98965.47;2249332;79;21419;-80
2021/09/13 10:31:04;;;;;;;6.72;6.12;;;;;;;24.57;52.04;98962.77;2247387;79;21028;-80
2021/09/13 10:34:05;;;;;;;7.60;5.45;;;;;;;24.98;51.79;98957.45;2249374;79;20968;-79
2021/09/13 10:37:06;;;;;;;7.55;6.85;;;;;;;25.36;51.33;98961.08;2246489;79;20933;-80
2021/09/13 10:40:06;;;;;;;4.90;4.50;;;;;;;25.32;49.54;98968.36;2256027;77;20963;-80
2021/09/13 10:43:07;;;;;;;5.10;4.70;;;;;;;25.27;49.27;98964.17;2281576;77;20990;-81
2021/09/13 10:46:07;;;;;;;4.95;4.45;;;;;;;25.00;48.98;98960.91;2286688;77;21027;-80
2021/09/13 10:49:07;;;;;;;5.00;4.70;;;;;;;24.63;48.77;98973.18;2265010;78;20978;-80
2021/09/13 10:52:08;;;;;;;5.28;4.78;;;;;;;24.18;49.61;98967.92;2259537;78;21252;-80
2021/09/13 10:55:09;;;;;;;8.10;4.83;;;;;;;23.90;50.59;98965.52;2272987;78;20990;-80
2021/09/13 10:58:10;;;;;;;5.92;5.42;;;;;;;23.70;50.86;98960.98;2198729;80;20980;-80
2021/09/13 11:01:11;;;;;;;5.95;5.30;;;;;;;23.47;51.40;98963.17;2204480;80;20999;-79
2021/09/13 11:04:12;;;;;;;6.08;5.22;;;;;;;23.15;53.13;98967.48;2234772;79;21316;-79
2021/09/13 11:07:16;;;;;;;6.75;5.60;;;;;;;22.87;54.19;98968.95;2203770;80;20960;-80
2021/09/13 11:10:15;;;;;;;6.45;5.72;;;;;;;22.51;55.83;98980.36;2227785;79;20996;-80
2021/09/13 11:13:15;;;;;;;6.25;5.70;;;;;;;22.21;56.93;98984.46;2191951;81;20947;-81
2021/09/13 11:16:16;;;;;;;6.85;6.28;;;;;;;22.05;57.35;98980.56;2191827;80;20940;-80
2021/09/13 11:19:17;;;;;;;6.62;6.05;;;;;;;22.04;57.52;98982.81;2184795;80;20977;-82
2021/09/13 11:22:21;;;;;;;11.15;6.40;;;;;;;22.13;57.92;98990.95;2263755;77;20956;-81
2021/09/13 11:25:21;;;;;;;8.38;5.97;;;;;;;22.22;57.20;98982.22;2269457;77;20979;-80
2021/09/13 11:28:21;;;;;;;6.20;5.67;;;;;;;22.31;56.56;98978.84;2287647;77;21010;-81
2021/09/13 11:31:22;;;;;;;5.55;5.05;;;;;;;22.31;56.88;98977.05;2260066;78;21011;-81
2021/09/13 11:34:22;;;;;;;5.78;5.10;;;;;;;22.68;56.36;98975.82;2265648;78;20948;-80
2021/09/13 11:37:23;;;;;;;5.65;5.08;;;;;;;23.23;55.71;98968.06;2206774;80;20972;-82
2021/09/13 11:40:24;;;;;;;5.10;3.75;;;;;;;23.67;53.63;98952.23;2184991;80;20985;-82
2021/09/13 11:43:24;;;;;;;7.70;4.08;;;;;;;24.05;50.73;98952.02;2197573;80;21428;-81
2021/09/13 11:46:24;;;;;;;4.75;4.35;;;;;;;24.20;49.12;98949.19;2197739;80;20980;-80
2021/09/13 11:49:25;;;;;;;7.08;4.47;;;;;;;24.23;49.65;98950.39;2191947;80;21014;-82
2021/09/13 11:52:29;;;;;;;4.45;3.80;;;;;;;24.35;50.02;98953.48;2190165;80;20960;-80
2021/09/13 11:55:30;;;;;;;;;;;;;;;24.36;48.15;98951.22;2178561;80;21100;-83
2021/09/13 11:58:30;;;;;;;5.50;4.53;;;;;;;24.19;49.79;98953.66;2192201;80;20387;-80
2021/09/13 12:01:31;;;;;;;5.20;4.60;;;;;;;24.00;49.96;98948.68;2167076;80;21028;-82
2021/09/13 12:04:31;;;;;;;4.83;4.28;;;;;;;24.17;49.56;98949.31;2182505;80;20977;-82
2021/09/13 12:07:32;;;;;;;9.78;5.78;;;;;;;23.80;49.87;98966.81;2194989;80;20993;-81
2021/09/13 12:10:33;;;;;;;8.95;5.42;;;;;;;23.23;52.54;98973.86;2201242;80;21376;-81
2021/09/13 12:13:33;;;;;;;7.58;6.10;;;;;;;22.63;54.67;98980.43;2191847;80;21677;-81
2021/09/13 12:16:34;;;;;;;6.97;5.92;;;;;;;22.24;56.56;98976.38;2234126;79;20953;-81
2021/09/13 12:19:35;;;;;;;11.05;7.08;;;;;;;22.12;57.94;98966.61;2240487;79;20968;-81
2021/09/13 12:22:35;;;;;;;6.87;6.30;;;;;;;22.01;58.03;98967.39;2269635;77;20959;-83
2021/09/13 12:25:36;;;;;;;10.25;7.03;;;;;;;21.77;58.12;98965.93;2284664;77;20960;-81
2021/09/13 12:28:36;;;;;;;6.85;5.95;;;;;;;21.61;58.89;98960.19;2271524;78;21281;-81
2021/09/13 12:31:37;;;;;;;7.05;6.35;;;;;;;21.58;57.77;98965.59;2285670;77;20999;-82
2021/09/13 12:34:37;;;;;;;18.15;12.80;;;;;;;21.91;58.21;98958.84;2298197;77;20964;-80
2021/09/13 12:37:38;;;;;;;7.83;6.05;;;;;;;22.21;58.24;98952.56;2274064;77;20991;-81
2021/09/13 12:40:39;;;;;;;9.45;7.25;;;;;;;22.28;56.87;98954.55;2173596;80;20959;-80
2021/09/13 12:43:39;;;;;;;8.80;5.90;;;;;;;22.28;56.97;98948.36;2184760;80;20977;-81
2021/09/13 12:46:40;;;;;;;6.62;5.50;;;;;;;22.69;56.05;98941.17;2198552;80;20983;-82
2021/09/13 12:49:40;;;;;;;6.55;5.92;;;;;;;22.91;55.25;98949.75;2176672;80;21002;-81
2021/09/13 12:52:41;;;;;;;8.00;5.78;;;;;;;22.71;54.98;98947.31;2206021;80;20977;-80
2021/09/13 12:55:41;;;;;;;5.78;5.28;;;;;;;22.55;56.01;98942.99;2192890;80;20992;-82
2021/09/13 12:58:45;;;;;;;5.85;5.33;;;;;;;22.35;56.78;98949.89;2204926;80;20968;-82
2021/09/13 13:01:44;;;;;;;6.70;6.05;;;;;;;22.12;56.65;98950.66;2209853;80;20972;-84
2021/09/13 13:04:46;;;;;;;5.95;5.45;;;;;;;21.97;57.15;98952.00;2204872;80;21415;-82
2021/09/13 13:07:49;;;;;;;6.58;5.40;;;;;;;21.80;58.32;98957.86;2234674;77;21366;-84
2021/09/13 13:10:52;;;;;;;6.58;5.97;;;;;;;21.70;59.37;98953.75;2287257;78;20951;-84
2021/09/13 13:13:53;;;;;;;6.28;5.78;;;;;;;21.62;59.54;98961.93;2276345;77;20958;-82
2021/09/13 13:16:53;;;;;;;6.62;6.03;;;;;;;21.48;59.64;98954.84;2298445;77;20967;-82
2021/09/13 13:19:54;;;;;;;6.53;5.92;;;;;;;21.39;60.18;98960.89;2197089;80;20976;-83
2021/09/13 13:22:54;;;;;;;10.45;7.40;;;;;;;21.33;60.44;98964.59;2203081;80;21000;-82
2021/09/13 13:25:55;;;;;;;9.60;7.47;;;;;;;21.32;60.72;98961.99;2226992;79;20988;-81
2021/09/13 13:28:55;;;;;;;11.65;6.87;;;;;;;21.32;60.78;98956.22;2186703;80;20983;-82
2021/09/13 13:31:58;;;;;;;8.38;7.17;;;;;;;21.44;60.60;98954.52;2192945;80;20952;-83
2021/09/13 13:34:58;;;;;;;8.15;6.87;;;;;;;21.55;60.27;98945.77;2185011;80;20988;-83
2021/09/13 13:37:59;;;;;;;7.28;6.30;;;;;;;21.76;60.25;98955.34;2204027;80;20973;-82
2021/09/13 13:40:59;;;;;;;24.95;14.60;;;;;;;21.77;60.32;98951.77;2191714;80;20977;-83
2021/09/13 13:44:00;;;;;;;7.28;6.60;;;;;;;21.69;60.41;98950.69;2223504;79;20988;-83
2021/09/13 13:47:00;;;;;;;6.97;6.28;;;;;;;21.63;60.81;98945.53;2192390;80;20988;-81
2021/09/13 13:50:01;;;;;;;8.60;6.25;;;;;;;21.60;60.84;98952.27;2182136;80;20974;-82
2021/09/13 13:53:01;;;;;;;143.93;67.03;;;;;;;21.63;60.39;98953.05;2188992;80;20985;-81
2021/09/13 13:56:02;;;;;;;9.18;5.83;;;;;;;21.77;60.13;98955.30;2185526;80;20985;-82
2021/09/13 13:59:02;;;;;;;14.13;6.70;;;;;;;21.99;59.01;98954.16;2194274;80;21360;-84
2021/09/13 14:02:03;;;;;;;9.68;6.87;;;;;;;22.02;59.18;98952.72;2182771;80;21146;-81
2021/09/13 14:05:03;;;;;;;12.53;7.28;;;;;;;22.01;58.90;98953.64;2192760;80;20952;-82
2021/09/13 14:08:04;;;;;;;8.73;6.47;;;;;;;21.86;59.01;98954.14;2182590;80;20944;-82